createdAt,value
2023-05-01T00:00:54.271Z,8.85
2023-05-01T00:03:21.514Z,8.77
2023-05-01T00:05:48.588Z,8.25
2023-05-01T00:08:16.058Z,7.88
2023-05-01T00:10:43.037Z,9.13
2023-05-01T00:13:10.587Z,7.95
2023-05-01T00:15:40.810Z,8.25
2023-05-01T00:18:07.718Z,8.57
2023-05-01T00:20:34.593Z,8.57
2023-05-01T00:23:01.324Z,7.90
2023-05-01T00:25:28.806Z,8.45
2023-05-01T00:27:55.601Z,8.63
2023-05-01T00:30:22.388Z,9.02
2023-05-01T00:32:49.266Z,7.82
2023-05-01T00:35:16.709Z,7.75
2023-05-01T00:37:43.470Z,8.90
2023-05-01T00:40:10.736Z,8.05
2023-05-01T00:42:39.523Z,8.35
2023-05-01T00:45:07.851Z,8.73
2023-05-01T00:47:38.235Z,9.25
2023-05-01T00:50:06.034Z,8.65
2023-05-01T00:52:33.011Z,8.80
2023-05-01T00:55:00.249Z,8.75
2023-05-01T00:57:27.339Z,8.15
2023-05-01T00:59:54.538Z,8.90
2023-05-01T01:02:21.876Z,8.48
2023-05-01T01:04:49.070Z,9.10
2023-05-01T01:07:22.019Z,8.50
2023-05-01T01:10:07.239Z,9.05
2023-05-01T01:12:58.990Z,9.32
2023-05-01T01:16:01.212Z,9.30
2023-05-01T01:18:43.622Z,8.60
2023-05-01T01:21:23.513Z,8.90
2023-05-01T01:24:01.624Z,8.40
2023-05-01T01:26:37.292Z,9.90
2023-05-01T01:29:34.853Z,10.05
2023-05-01T01:32:02.239Z,9.82
2023-05-01T01:34:36.373Z,10.00
2023-05-01T01:37:17.553Z,11.85
2023-05-01T01:39:47.107Z,9.95
2023-05-01T01:42:19.645Z,11.57
2023-05-01T01:44:56.048Z,11.50
2023-05-01T01:47:33.108Z,11.90
2023-05-01T01:50:06.751Z,10.90
2023-05-01T01:52:35.545Z,10.98
2023-05-01T01:55:08.495Z,10.43
2023-05-01T01:57:37.948Z,11.00
2023-05-01T02:00:08.966Z,10.95
2023-05-01T02:02:39.603Z,10.85
2023-05-01T02:05:08.911Z,9.80
2023-05-01T02:07:39.466Z,9.82
2023-05-01T02:10:08.860Z,10.35
2023-05-01T02:12:37.221Z,10.10
2023-05-01T02:15:06.717Z,9.52
2023-05-01T02:17:35.536Z,9.00
2023-05-01T02:20:03.852Z,9.30
2023-05-01T02:22:30.906Z,9.15
2023-05-01T02:25:00.076Z,8.80
2023-05-01T02:27:32.349Z,10.00
2023-05-01T02:29:59.390Z,8.82
2023-05-01T02:32:26.622Z,9.25
2023-05-01T02:34:53.432Z,8.85
2023-05-01T02:37:20.995Z,8.52
2023-05-01T02:39:48.786Z,9.07
2023-05-01T02:42:17.952Z,9.52
2023-05-01T02:45:06.719Z,8.82
2023-05-01T02:47:38.117Z,8.30
2023-05-01T02:50:08.111Z,8.80
2023-05-01T02:52:36.677Z,8.60
2023-05-01T02:55:03.871Z,8.32
2023-05-01T02:57:33.098Z,8.25
2023-05-01T02:59:59.891Z,8.10
2023-05-01T03:02:26.878Z,8.82
2023-05-01T03:04:53.684Z,8.93
2023-05-01T03:07:20.413Z,9.85
2023-05-01T03:09:47.168Z,9.63
2023-05-01T03:12:13.912Z,9.75
2023-05-01T03:14:41.104Z,9.93
2023-05-01T03:17:08.009Z,9.18
2023-05-01T03:19:34.884Z,8.85
2023-05-01T03:22:01.802Z,8.77
2023-05-01T03:24:28.601Z,9.07
2023-05-01T03:26:55.518Z,8.65
2023-05-01T03:29:22.275Z,9.95
2023-05-01T03:31:49.141Z,8.40
2023-05-01T03:34:15.966Z,7.90
2023-05-01T03:36:42.756Z,8.13
2023-05-01T03:39:09.579Z,8.90
2023-05-01T03:41:36.434Z,10.13
2023-05-01T03:44:03.855Z,10.07
2023-05-01T03:46:30.738Z,9.00
2023-05-01T03:48:57.892Z,8.20
2023-05-01T03:51:24.688Z,8.00
2023-05-01T03:53:52.358Z,9.20
2023-05-01T03:56:19.266Z,8.35
2023-05-01T03:58:46.064Z,8.02
2023-05-01T04:01:12.842Z,8.40
2023-05-01T04:03:39.857Z,8.88
2023-05-01T04:06:06.792Z,8.65
2023-05-01T04:08:33.651Z,8.15
2023-05-01T04:11:01.103Z,8.05
2023-05-01T04:13:28.120Z,8.23
2023-05-01T04:15:57.609Z,8.20
2023-05-01T04:18:24.384Z,9.02
2023-05-01T04:20:52.283Z,9.30
2023-05-01T04:23:20.459Z,9.55
2023-05-01T04:25:47.881Z,9.07
2023-05-01T04:28:14.674Z,9.15
2023-05-01T04:30:41.547Z,9.35
2023-05-01T04:33:11.681Z,9.40
2023-05-01T04:35:39.356Z,10.55
2023-05-01T04:38:07.034Z,10.32
2023-05-01T04:40:34.391Z,9.68
2023-05-01T04:43:01.253Z,9.05
2023-05-01T04:45:28.017Z,9.90
2023-05-01T04:47:54.830Z,9.05
2023-05-01T04:50:21.780Z,9.85
2023-05-01T04:52:48.726Z,10.23
2023-05-01T04:55:15.545Z,10.57
2023-05-01T04:57:42.390Z,9.85
2023-05-01T05:00:09.664Z,9.48
2023-05-01T05:02:36.592Z,9.65
2023-05-01T05:05:03.792Z,10.18
2023-05-01T05:07:30.571Z,11.82
2023-05-01T05:09:57.515Z,12.32
2023-05-01T05:12:24.473Z,10.50
2023-05-01T05:14:51.229Z,10.32
2023-05-01T05:17:18.019Z,10.57
2023-05-01T05:19:44.814Z,9.93
2023-05-01T05:22:12.690Z,9.57
2023-05-01T05:24:53.952Z,9.73
2023-05-01T05:27:21.202Z,9.93
2023-05-01T05:30:01.117Z,9.95
2023-05-01T05:32:28.709Z,10.63
2023-05-01T05:34:55.509Z,11.73
2023-05-01T05:37:22.499Z,11.13
2023-05-01T05:39:49.314Z,10.57
2023-05-01T05:42:16.189Z,12.00
2023-05-01T05:44:43.014Z,10.80
2023-05-01T05:47:09.754Z,11.20
2023-05-01T05:49:36.546Z,10.50
2023-05-01T05:52:03.353Z,9.82
2023-05-01T05:54:30.235Z,10.23
2023-05-01T05:56:56.997Z,9.98
2023-05-01T05:59:23.734Z,8.63
2023-05-01T06:01:50.513Z,8.50
2023-05-01T06:04:17.313Z,9.32
2023-05-01T06:06:44.232Z,8.43
2023-05-01T06:09:12.812Z,8.73
2023-05-01T06:11:40.069Z,8.63
2023-05-01T06:14:07.547Z,9.25
2023-05-01T06:16:35.152Z,9.27
2023-05-01T06:19:02.514Z,8.65
2023-05-01T06:21:29.514Z,8.95
2023-05-01T06:23:56.317Z,7.63
2023-05-01T06:26:23.370Z,6.85
2023-05-01T06:28:50.136Z,6.38
2023-05-01T06:31:17.160Z,8.02
2023-05-01T06:33:44.065Z,7.10
2023-05-01T06:36:11.001Z,6.85
2023-05-01T06:38:37.795Z,6.07
2023-05-01T06:41:05.610Z,6.53
2023-05-01T06:43:32.705Z,6.00
2023-05-01T06:45:59.788Z,5.72
2023-05-01T06:48:26.680Z,6.03
2023-05-01T06:50:53.503Z,6.45
2023-05-01T06:53:20.291Z,6.18
2023-05-01T06:55:47.094Z,6.75
2023-05-01T06:58:23.639Z,5.88
2023-05-01T07:00:52.390Z,6.03
2023-05-01T07:03:19.448Z,5.88
2023-05-01T07:05:46.393Z,6.45
2023-05-01T07:08:14.439Z,6.18
2023-05-01T07:10:42.245Z,6.25
2023-05-01T07:13:09.675Z,6.60
2023-05-01T07:15:36.685Z,6.70
2023-05-01T07:18:06.089Z,8.18
2023-05-01T07:20:33.357Z,7.25
2023-05-01T07:23:00.414Z,6.57
2023-05-01T07:25:27.222Z,6.20
2023-05-01T07:27:54.925Z,6.00
2023-05-01T07:30:21.877Z,7.13
2023-05-01T07:32:51.395Z,6.28
2023-05-01T07:35:18.302Z,6.13
2023-05-01T07:37:45.109Z,7.22
2023-05-01T07:40:12.514Z,7.18
2023-05-01T07:42:42.052Z,6.70
2023-05-01T07:45:09.423Z,6.38
2023-05-01T07:47:36.749Z,6.20
2023-05-01T07:50:05.218Z,6.40
2023-05-01T07:52:32.398Z,6.85
2023-05-01T07:54:59.389Z,6.65
2023-05-01T07:57:26.209Z,6.07
2023-05-01T07:59:57.091Z,6.93
2023-05-01T08:02:24.263Z,6.35
2023-05-01T08:04:51.787Z,6.03
2023-05-01T08:07:18.691Z,6.10
2023-05-01T08:09:46.434Z,5.93
2023-05-01T08:12:13.906Z,6.50
2023-05-01T08:14:40.784Z,6.47
2023-05-01T08:17:07.599Z,6.25
2023-05-01T08:19:35.026Z,6.43
2023-05-01T08:22:01.884Z,6.80
2023-05-01T08:24:28.686Z,6.05
2023-05-01T08:26:56.133Z,6.25
2023-05-01T08:29:22.907Z,6.47
2023-05-01T08:31:49.735Z,6.88
2023-05-01T08:34:17.499Z,6.07
2023-05-01T08:36:44.339Z,7.10
2023-05-01T08:39:11.982Z,6.38
2023-05-01T08:41:39.932Z,6.78
2023-05-01T08:44:08.872Z,7.57
2023-05-01T08:46:48.646Z,7.25
2023-05-01T08:49:17.401Z,6.18
2023-05-01T08:51:48.264Z,6.68
2023-05-01T08:54:16.732Z,6.03
2023-05-01T08:56:45.590Z,6.53
2023-05-01T08:59:14.709Z,7.03
2023-05-01T09:01:43.631Z,6.18
2023-05-01T09:04:12.105Z,6.95
2023-05-01T09:06:39.177Z,7.30
2023-05-01T09:09:06.260Z,6.70
2023-05-01T09:11:33.273Z,5.95
2023-05-01T09:14:05.619Z,5.93
2023-05-01T09:16:34.030Z,6.25
2023-05-01T09:19:01.439Z,6.80
2023-05-01T09:21:33.571Z,6.15
2023-05-01T09:24:00.493Z,6.03
2023-05-01T09:26:27.802Z,7.32
2023-05-01T09:28:58.582Z,6.35
2023-05-01T09:31:29.073Z,5.97
2023-05-01T09:34:02.413Z,6.60
2023-05-01T09:36:36.387Z,6.88
2023-05-01T09:39:04.238Z,6.25
2023-05-01T09:41:34.051Z,6.72
2023-05-01T09:44:01.644Z,7.68
2023-05-01T09:46:28.646Z,5.40
2023-05-01T09:49:00.469Z,5.22
2023-05-01T09:54:20.888Z,6.20
2023-05-01T09:56:49.012Z,6.10
2023-05-01T09:59:20.364Z,6.00
2023-05-01T10:01:49.441Z,6.20
2023-05-01T10:04:16.423Z,6.65
2023-05-01T10:06:43.329Z,6.28
2023-05-01T10:09:16.950Z,5.20
2023-05-01T10:11:56.220Z,5.43
2023-05-01T10:14:24.396Z,5.10
2023-05-01T10:16:53.165Z,5.78
2023-05-01T10:19:21.285Z,4.93
2023-05-01T10:21:48.255Z,4.65
2023-05-01T10:24:17.104Z,3.88
2023-05-01T10:26:44.862Z,4.95
2023-05-01T10:29:12.931Z,5.00
2023-05-01T10:31:42.258Z,3.90
2023-05-01T10:34:10.632Z,4.35
2023-05-01T10:36:46.013Z,4.38
2023-05-01T10:39:35.957Z,5.05
2023-05-01T10:42:18.003Z,4.82
2023-05-01T10:44:47.977Z,4.85
2023-05-01T10:47:31.531Z,4.90
2023-05-01T10:50:16.080Z,4.47
2023-05-01T10:53:20.174Z,3.92
2023-05-01T10:55:49.290Z,4.07
2023-05-01T10:58:38.646Z,4.43
2023-05-01T11:01:40.528Z,4.03
2023-05-01T11:04:19.492Z,3.97
2023-05-01T11:07:05.351Z,6.00
2023-05-01T11:09:55.340Z,4.88
2023-05-01T11:12:47.606Z,4.10
2023-05-01T11:15:28.254Z,4.82
2023-05-01T11:17:56.093Z,4.50
2023-05-01T11:20:26.009Z,4.72
2023-05-01T11:23:19.792Z,4.53
2023-05-01T11:25:48.205Z,3.92
2023-05-01T11:28:20.167Z,4.05
2023-05-01T11:30:47.103Z,4.22
2023-05-01T11:33:21.466Z,4.90
2023-05-01T11:35:57.441Z,4.18
2023-05-01T11:38:24.312Z,4.60
2023-05-01T11:41:15.469Z,4.70
2023-05-01T11:43:56.563Z,4.23
2023-05-01T11:46:58.284Z,4.78
2023-05-01T11:49:30.844Z,4.35
2023-05-01T11:51:58.895Z,5.05
2023-05-01T11:54:27.079Z,4.80
2023-05-01T11:57:03.715Z,4.43
2023-05-01T11:59:30.683Z,4.53
2023-05-01T12:01:58.383Z,4.38
2023-05-01T12:04:32.030Z,4.60
2023-05-01T12:06:59.579Z,4.82
2023-05-01T12:09:27.495Z,4.20
2023-05-01T12:11:54.950Z,3.97
2023-05-01T12:14:22.396Z,4.45
2023-05-01T12:16:49.673Z,4.00
2023-05-01T12:19:18.281Z,4.43
2023-05-01T12:21:45.094Z,4.25
2023-05-01T12:24:17.424Z,3.83
2023-05-01T12:26:45.729Z,4.35
2023-05-01T12:29:13.038Z,4.10
2023-05-01T12:31:48.426Z,3.80
2023-05-01T12:34:15.386Z,4.32
2023-05-01T12:36:42.398Z,4.07
2023-05-01T12:39:11.940Z,4.35
2023-05-01T12:41:41.473Z,5.30
2023-05-01T12:44:32.243Z,3.63
2023-05-01T12:47:03.176Z,4.00
2023-05-01T12:49:31.821Z,4.03
2023-05-01T12:52:02.516Z,4.30
2023-05-01T12:54:31.621Z,4.35
2023-05-01T12:57:31.009Z,4.15
2023-05-01T13:00:05.020Z,4.28
2023-05-01T13:02:33.562Z,3.72
2023-05-01T13:05:11.627Z,3.40
2023-05-01T13:07:40.228Z,3.95
2023-05-01T13:10:07.519Z,3.50
2023-05-01T13:12:44.643Z,3.67
2023-05-01T13:15:22.269Z,3.72
2023-05-01T13:17:49.423Z,3.80
2023-05-01T13:20:27.977Z,4.05
2023-05-01T13:22:54.852Z,3.33
2023-05-01T13:25:21.932Z,3.45
2023-05-01T13:27:50.279Z,4.13
2023-05-01T13:30:31.390Z,3.40
2023-05-01T13:33:13.448Z,3.42
2023-05-01T13:35:40.554Z,3.80
2023-05-01T13:38:13.959Z,5.95
2023-05-01T13:40:41.463Z,3.60
2023-05-01T13:43:16.341Z,3.60
2023-05-01T13:45:43.225Z,3.33
2023-05-01T13:48:10.926Z,3.95
2023-05-01T13:50:40.699Z,4.15
2023-05-01T13:53:07.537Z,3.80
2023-05-01T13:55:34.297Z,3.83
2023-05-01T13:58:03.067Z,3.60
2023-05-01T14:00:29.890Z,3.30
2023-05-01T14:02:59.703Z,3.55
2023-05-01T14:05:29.733Z,3.55
2023-05-01T14:07:58.498Z,3.47
2023-05-01T14:10:28.736Z,3.50
2023-05-01T14:12:59.238Z,3.72
2023-05-01T14:15:26.926Z,3.60
2023-05-01T14:17:53.821Z,3.70
2023-05-01T14:20:20.731Z,3.83
2023-05-01T14:22:51.674Z,3.45
2023-05-01T14:25:31.269Z,3.90
2023-05-01T14:28:00.371Z,4.53
2023-05-01T14:30:37.381Z,3.70
2023-05-01T14:33:08.418Z,7.55
2023-05-01T14:35:36.654Z,3.67
2023-05-01T14:38:17.309Z,4.13
2023-05-01T14:40:45.013Z,4.30
2023-05-01T14:43:24.099Z,3.47
2023-05-01T14:45:51.211Z,4.05
2023-05-01T14:48:25.897Z,4.68
2023-05-01T14:50:54.910Z,4.68
2023-05-01T14:53:23.187Z,4.68
2023-05-01T14:55:52.004Z,4.05
2023-05-01T14:58:18.781Z,4.18
2023-05-01T15:00:46.205Z,3.33
2023-05-01T15:03:13.279Z,3.78
2023-05-01T15:05:41.806Z,3.88
2023-05-01T15:08:09.346Z,4.05
2023-05-01T15:10:37.298Z,4.35
2023-05-01T15:13:04.211Z,4.00
2023-05-01T15:15:31.008Z,4.38
2023-05-01T15:17:57.863Z,3.67
2023-05-01T15:20:24.640Z,3.92
2023-05-01T15:22:51.485Z,3.97
2023-05-01T15:25:18.458Z,4.05
2023-05-01T15:27:46.206Z,3.60
2023-05-01T15:30:14.778Z,4.20
2023-05-01T15:32:41.775Z,3.60
2023-05-01T15:35:09.274Z,3.55
2023-05-01T15:37:36.167Z,3.40
2023-05-01T15:40:04.415Z,3.20
2023-05-01T15:42:31.511Z,3.90
2023-05-01T15:44:58.708Z,4.07
2023-05-01T15:47:26.029Z,3.63
2023-05-01T15:49:53.793Z,4.05
2023-05-01T15:52:20.922Z,3.72
2023-05-01T15:54:47.765Z,3.92
2023-05-01T15:57:17.800Z,4.05
2023-05-01T15:59:44.996Z,4.13
2023-05-01T16:02:12.079Z,3.92
2023-05-01T16:04:39.124Z,3.88
2023-05-01T16:07:07.930Z,3.97
2023-05-01T16:09:34.899Z,3.95
2023-05-01T16:12:03.213Z,4.05
2023-05-01T16:14:31.191Z,4.07
2023-05-01T16:16:58.160Z,4.07
2023-05-01T16:19:25.141Z,4.28
2023-05-01T16:21:52.307Z,3.80
2023-05-01T16:24:19.242Z,4.13
2023-05-01T16:26:46.350Z,3.83
2023-05-01T16:29:13.169Z,4.35
2023-05-01T16:31:44.234Z,4.03
2023-05-01T16:34:11.643Z,4.18
2023-05-01T16:36:42.492Z,3.55
2023-05-01T16:39:13.684Z,4.30
2023-05-01T16:41:49.227Z,3.97
2023-05-01T16:44:17.708Z,4.13
2023-05-01T16:46:54.647Z,10.50
2023-05-01T16:49:23.150Z,4.80
2023-05-01T16:51:50.358Z,5.15
2023-05-01T16:54:17.844Z,4.47
2023-05-01T16:56:44.808Z,3.92
2023-05-01T16:59:11.714Z,4.20
2023-05-01T17:01:38.561Z,3.92
2023-05-01T17:04:06.161Z,6.72
2023-05-01T17:06:33.491Z,4.20
2023-05-01T17:09:00.492Z,4.75
2023-05-01T17:11:29.168Z,4.30
2023-05-01T17:13:57.125Z,4.57
2023-05-01T17:16:23.973Z,4.25
2023-05-01T17:18:50.757Z,4.40
2023-05-01T17:21:17.615Z,4.95
2023-05-01T17:23:44.598Z,3.90
2023-05-01T17:26:11.470Z,4.45
2023-05-01T17:28:39.540Z,4.55
2023-05-01T17:31:06.353Z,4.68
2023-05-01T17:33:33.250Z,4.65
2023-05-01T17:36:00.716Z,4.32
2023-05-01T17:38:27.555Z,4.90
2023-05-01T17:40:54.345Z,4.70
2023-05-01T17:43:21.144Z,4.80
2023-05-01T17:45:48.977Z,5.20
2023-05-01T17:48:16.023Z,4.82
2023-05-01T17:50:42.834Z,5.15
2023-05-01T17:53:09.645Z,5.00
2023-05-01T17:55:38.411Z,5.68
2023-05-01T17:58:05.169Z,6.10
2023-05-01T18:00:33.113Z,5.53
2023-05-01T18:02:59.936Z,6.13
2023-05-01T18:05:26.906Z,7.80
2023-05-01T18:07:53.668Z,9.07
2023-05-01T18:10:20.623Z,8.48
2023-05-01T18:12:49.820Z,7.57
2023-05-01T18:15:22.791Z,7.10
2023-05-01T18:17:50.134Z,8.32
2023-05-01T18:20:17.150Z,7.28
2023-05-01T18:22:43.908Z,7.70
2023-05-01T18:25:10.738Z,6.82
2023-05-01T18:27:38.297Z,6.05
2023-05-01T18:30:05.783Z,6.53
2023-05-01T18:32:46.216Z,6.93
2023-05-01T18:35:16.118Z,6.53
2023-05-01T18:37:44.041Z,8.10
2023-05-01T18:40:11.643Z,9.23
2023-05-01T18:42:41.198Z,8.57
2023-05-01T18:45:09.922Z,7.15
2023-05-01T18:47:36.850Z,6.93
2023-05-01T18:50:04.357Z,6.60
2023-05-01T18:52:31.300Z,7.63
2023-05-01T18:54:58.102Z,6.88
2023-05-01T18:57:24.874Z,6.25
2023-05-01T18:59:51.673Z,8.60
2023-05-01T19:02:18.405Z,8.93
2023-05-01T19:04:56.678Z,7.18
2023-05-01T19:07:26.266Z,6.28
2023-05-01T19:09:53.377Z,6.45
2023-05-01T19:12:20.206Z,5.63
2023-05-01T19:14:46.985Z,5.10
2023-05-01T19:17:13.887Z,5.15
2023-05-01T19:19:40.659Z,5.00
2023-05-01T19:22:07.618Z,5.50
2023-05-01T19:24:34.455Z,6.10
2023-05-01T19:27:03.232Z,5.15
2023-05-01T19:29:33.739Z,5.75
2023-05-01T19:32:00.624Z,5.50
2023-05-01T19:34:28.270Z,5.20
2023-05-01T19:36:57.054Z,5.40
2023-05-01T19:39:24.109Z,5.82
2023-05-01T19:41:51.223Z,5.43
2023-05-01T19:44:18.250Z,5.43
2023-05-01T19:46:45.113Z,5.75
2023-05-01T19:49:12.077Z,5.55
2023-05-01T19:51:40.036Z,5.47
2023-05-01T19:54:06.865Z,6.28
2023-05-01T19:56:39.761Z,5.95
2023-05-01T19:59:06.598Z,5.65
2023-05-01T20:01:33.659Z,6.18
2023-05-01T20:04:00.803Z,6.35
2023-05-01T20:06:43.958Z,6.03
2023-05-01T20:09:10.954Z,6.13
2023-05-01T20:11:37.699Z,6.30
2023-05-01T20:14:04.616Z,6.70
2023-05-01T20:16:31.585Z,6.55
2023-05-01T20:18:58.478Z,7.28
2023-05-01T20:21:25.794Z,6.97
2023-05-01T20:23:54.351Z,4.95
2023-05-01T20:26:21.283Z,5.25
2023-05-01T20:28:48.920Z,6.13
2023-05-01T20:31:15.900Z,5.68
2023-05-01T20:33:42.785Z,6.18
2023-05-01T20:36:09.728Z,5.97
2023-05-01T20:38:43.053Z,5.60
2023-05-01T20:41:10.200Z,5.80
2023-05-01T20:43:37.173Z,6.60
2023-05-01T20:46:04.058Z,6.22
2023-05-01T20:48:31.815Z,5.50
2023-05-01T20:50:58.608Z,5.80
2023-05-01T20:53:25.538Z,5.45
2023-05-01T20:55:52.381Z,5.88
2023-05-01T20:58:19.279Z,5.43
2023-05-01T21:00:46.135Z,5.65
2023-05-01T21:03:15.233Z,6.15
2023-05-01T21:05:42.372Z,6.15
2023-05-01T21:08:09.187Z,6.53
2023-05-01T21:10:36.832Z,5.80
2023-05-01T21:13:04.071Z,6.82
2023-05-01T21:15:32.112Z,6.38
2023-05-01T21:17:59.351Z,6.57
2023-05-01T21:20:34.936Z,5.78
2023-05-01T21:23:02.357Z,6.25
2023-05-01T21:25:31.875Z,6.00
2023-05-01T21:28:03.575Z,6.25
2023-05-01T21:30:35.374Z,5.75
2023-05-01T21:33:05.644Z,6.60
2023-05-01T21:35:32.869Z,6.30
2023-05-01T21:38:00.421Z,6.18
2023-05-01T21:40:27.555Z,6.30
2023-05-01T21:42:55.221Z,5.97
2023-05-01T21:45:22.322Z,5.18
2023-05-01T21:47:51.017Z,5.47
2023-05-01T21:50:19.857Z,5.90
2023-05-01T21:52:48.541Z,6.13
2023-05-01T21:55:26.338Z,5.57
2023-05-01T21:57:55.867Z,6.32
2023-05-01T22:00:22.718Z,6.55
2023-05-01T22:02:51.210Z,6.25
2023-05-01T22:05:22.468Z,6.15
2023-05-01T22:07:51.986Z,6.50
2023-05-01T22:10:19.892Z,5.65
2023-05-01T22:12:49.369Z,6.88
2023-05-01T22:15:16.695Z,6.50
2023-05-01T22:17:44.565Z,6.22
2023-05-01T22:20:12.278Z,5.43
2023-05-01T22:22:40.471Z,5.78
2023-05-01T22:25:08.488Z,6.40
2023-05-01T22:27:35.802Z,6.38
2023-05-01T22:30:04.068Z,6.13
2023-05-01T22:32:31.249Z,6.05
2023-05-01T22:34:58.068Z,5.97
2023-05-01T22:37:25.725Z,6.10
2023-05-01T22:39:53.507Z,6.45
2023-05-01T22:42:20.893Z,5.90
2023-05-01T22:44:48.136Z,6.15
2023-05-01T22:47:15.048Z,6.35
2023-05-01T22:49:41.830Z,5.85
2023-05-01T22:52:08.732Z,6.38
2023-05-01T22:54:35.594Z,6.70
2023-05-01T22:57:02.652Z,6.50
2023-05-01T22:59:29.488Z,7.10
2023-05-01T23:01:56.722Z,7.10
2023-05-01T23:04:23.600Z,6.88
2023-05-01T23:06:50.555Z,6.70
2023-05-01T23:09:17.813Z,6.80
2023-05-01T23:11:47.662Z,7.35
2023-05-01T23:14:18.064Z,7.13
2023-05-01T23:16:45.041Z,6.93
2023-05-01T23:19:22.862Z,6.68
2023-05-01T23:21:51.911Z,6.38
2023-05-01T23:24:21.286Z,6.40
2023-05-01T23:26:48.209Z,6.45
2023-05-01T23:29:18.388Z,6.75
2023-05-01T23:31:47.632Z,6.30
2023-05-01T23:34:17.786Z,6.45
2023-05-01T23:36:46.984Z,5.88
2023-05-01T23:39:14.631Z,7.57
2023-05-01T23:41:42.223Z,6.55
2023-05-01T23:44:10.072Z,6.20
2023-05-01T23:46:37.804Z,6.30
2023-05-01T23:49:05.053Z,6.45
2023-05-01T23:51:32.853Z,5.95
2023-05-01T23:54:00.216Z,6.47
2023-05-01T23:56:27.054Z,6.13
2023-05-01T23:58:53.908Z,6.00
